createdAt,value
2018-08-23T00:01:28.852Z,50.00
2018-08-23T00:03:55.643Z,50.60
2018-08-23T00:06:22.569Z,46.20
2018-08-23T00:08:49.272Z,44.40
2018-08-23T00:11:15.797Z,46.40
2018-08-23T00:13:42.586Z,38.20
2018-08-23T00:16:09.101Z,46.80
2018-08-23T00:18:35.573Z,46.60
2018-08-23T00:21:03.398Z,46.80
2018-08-23T00:23:30.259Z,43.80
2018-08-23T00:25:56.710Z,46.80
2018-08-23T00:28:23.202Z,45.60
2018-08-23T00:30:49.702Z,46.80
2018-08-23T00:33:16.461Z,46.40
2018-08-23T00:35:42.945Z,50.80
2018-08-23T00:38:09.429Z,48.60
2018-08-23T00:40:36.173Z,47.40
2018-08-23T00:43:02.661Z,45.80
2018-08-23T00:45:29.118Z,45.60
2018-08-23T00:47:56.907Z,46.20
2018-08-23T00:50:23.392Z,34.20
2018-08-23T00:52:49.849Z,38.20
2018-08-23T00:55:16.322Z,41.60
2018-08-23T00:57:43.063Z,44.20
2018-08-23T01:00:09.510Z,42.60
2018-08-23T01:02:36.007Z,43.20
2018-08-23T01:05:02.486Z,41.40
2018-08-23T01:07:31.198Z,43.60
2018-08-23T01:09:57.677Z,37.00
2018-08-23T01:12:24.159Z,44.00
2018-08-23T01:14:50.647Z,43.80
2018-08-23T01:17:17.385Z,42.00
2018-08-23T01:19:43.871Z,36.00
2018-08-23T01:22:10.332Z,41.40
2018-08-23T01:24:37.082Z,44.80
2018-08-23T01:27:03.563Z,39.20
2018-08-23T01:29:30.019Z,44.40
2018-08-23T01:31:56.470Z,42.00
2018-08-23T01:34:23.243Z,43.40
2018-08-23T01:36:49.750Z,43.80
2018-08-23T01:39:17.409Z,41.60
2018-08-23T01:41:43.869Z,47.20
2018-08-23T01:44:10.641Z,46.00
2018-08-23T01:46:37.159Z,49.00
2018-08-23T01:49:03.654Z,52.00
2018-08-23T01:51:30.139Z,50.80
2018-08-23T01:53:56.934Z,43.60
2018-08-23T01:56:23.425Z,45.80
2018-08-23T01:58:49.903Z,43.40
2018-08-23T02:01:16.414Z,40.20
2018-08-23T02:03:43.166Z,42.40
2018-08-23T02:06:09.651Z,42.00
2018-08-23T02:08:36.106Z,38.80
2018-08-23T02:11:02.562Z,44.60
2018-08-23T02:13:29.340Z,45.60
2018-08-23T02:15:55.817Z,42.20
2018-08-23T02:18:22.276Z,44.40
2018-08-23T02:20:48.750Z,42.00
2018-08-23T02:23:15.509Z,41.60
2018-08-23T02:25:41.992Z,43.60
2018-08-23T02:28:08.465Z,39.60
2018-08-23T02:30:34.964Z,45.20
2018-08-23T02:33:01.754Z,40.60
2018-08-23T02:35:28.252Z,39.60
2018-08-23T02:37:54.735Z,40.80
2018-08-23T02:40:21.539Z,36.80
2018-08-23T02:42:48.035Z,41.20
2018-08-23T02:45:14.485Z,42.60
2018-08-23T02:47:40.950Z,47.40
2018-08-23T02:50:07.742Z,49.00
2018-08-23T02:52:34.194Z,49.80
2018-08-23T02:55:00.650Z,50.60
2018-08-23T02:57:27.101Z,50.00
2018-08-23T02:59:53.846Z,48.60
2018-08-23T03:02:20.391Z,51.20
2018-08-23T03:04:46.875Z,49.80
2018-08-23T03:07:13.676Z,56.20
2018-08-23T03:09:40.120Z,55.40
2018-08-23T03:12:06.607Z,54.20
2018-08-23T03:14:33.138Z,51.80
2018-08-23T03:16:59.914Z,51.20
2018-08-23T03:19:26.419Z,49.40
2018-08-23T03:21:52.873Z,51.60
2018-08-23T03:24:19.348Z,57.40
2018-08-23T03:26:46.382Z,49.00
2018-08-23T03:29:12.874Z,52.00
2018-08-23T03:31:39.342Z,60.40
2018-08-23T03:34:06.095Z,52.80
2018-08-23T03:36:32.574Z,56.40
2018-08-23T03:38:59.058Z,56.40
2018-08-23T03:41:26.497Z,49.80
2018-08-23T03:43:53.241Z,52.80
2018-08-23T03:46:19.735Z,48.00
2018-08-23T03:48:46.226Z,52.00
2018-08-23T03:51:12.689Z,49.40
2018-08-23T03:53:39.446Z,55.60
2018-08-23T03:56:05.914Z,52.60
2018-08-23T03:58:32.394Z,52.80
2018-08-23T04:00:59.529Z,45.60
2018-08-23T04:03:26.299Z,46.40
2018-08-23T04:05:52.787Z,42.80
2018-08-23T04:08:19.267Z,50.00
2018-08-23T04:10:45.725Z,57.00
2018-08-23T04:13:12.514Z,58.40
2018-08-23T04:15:40.642Z,55.00
2018-08-23T04:18:07.131Z,53.60
2018-08-23T04:20:35.076Z,43.40
2018-08-23T04:23:01.596Z,57.60
2018-08-23T04:25:28.061Z,43.40
2018-08-23T04:27:54.527Z,50.00
2018-08-23T04:30:21.313Z,54.00
2018-08-23T04:32:48.826Z,54.20
2018-08-23T04:35:15.322Z,40.40
2018-08-23T04:37:42.109Z,45.20
2018-08-23T04:40:08.602Z,49.40
2018-08-23T04:42:35.118Z,49.00
2018-08-23T04:45:03.057Z,44.20
2018-08-23T04:47:30.098Z,38.60
2018-08-23T04:49:56.868Z,44.20
2018-08-23T04:52:23.745Z,48.00
2018-08-23T04:54:50.216Z,46.60
2018-08-23T04:57:16.669Z,45.00
2018-08-23T04:59:43.123Z,44.60
2018-08-23T05:02:10.639Z,42.80
2018-08-23T05:04:37.120Z,39.80
2018-08-23T05:07:03.578Z,48.60
2018-08-23T05:09:30.326Z,48.80
2018-08-23T05:11:56.814Z,46.00
2018-08-23T05:14:24.209Z,48.40
2018-08-23T05:16:50.975Z,52.00
2018-08-23T05:19:17.470Z,48.40
2018-08-23T05:21:43.954Z,48.40
2018-08-23T05:24:10.729Z,46.00
2018-08-23T05:26:37.225Z,40.20
2018-08-23T05:29:03.730Z,45.20
2018-08-23T05:31:30.510Z,44.60
2018-08-23T05:33:58.631Z,42.40
2018-08-23T05:36:25.118Z,40.80
2018-08-23T05:38:51.898Z,45.00
2018-08-23T05:41:18.394Z,44.20
2018-08-23T05:43:44.883Z,50.60
2018-08-23T05:46:11.641Z,40.60
2018-08-23T05:48:38.103Z,48.60
2018-08-23T05:51:04.593Z,44.20
2018-08-23T05:53:32.430Z,48.80
2018-08-23T05:55:58.959Z,43.00
2018-08-23T05:58:25.630Z,47.60
2018-08-23T06:00:52.465Z,47.80
2018-08-23T06:03:18.949Z,52.00
2018-08-23T06:05:45.407Z,42.60
2018-08-23T06:08:12.186Z,48.40
2018-08-23T06:10:38.721Z,47.60
2018-08-23T06:13:05.223Z,45.40
2018-08-23T06:15:31.997Z,52.80
2018-08-23T06:17:58.484Z,48.60
2018-08-23T06:20:25.468Z,45.80
2018-08-23T06:22:52.249Z,54.00
2018-08-23T06:25:18.705Z,48.80
2018-08-23T06:27:45.187Z,51.80
2018-08-23T06:30:11.960Z,50.60
2018-08-23T06:32:38.457Z,45.60
2018-08-23T06:35:04.962Z,48.80
2018-08-23T06:37:31.745Z,52.00
2018-08-23T06:39:58.262Z,51.00
2018-08-23T06:42:24.715Z,52.40
2018-08-23T06:44:51.891Z,47.20
2018-08-23T06:47:18.366Z,49.00
2018-08-23T06:49:44.854Z,51.00
2018-08-23T06:52:12.435Z,48.60
2018-08-23T06:54:39.003Z,51.00
2018-08-23T06:57:05.483Z,50.80
2018-08-23T06:59:32.238Z,47.00
2018-08-23T07:01:58.734Z,46.60
2018-08-23T07:04:25.210Z,45.60
2018-08-23T07:06:52.040Z,37.20
2018-08-23T07:09:19.436Z,49.40
2018-08-23T07:11:46.009Z,44.40
2018-08-23T07:14:12.750Z,45.20
2018-08-23T07:16:39.227Z,42.40
2018-08-23T07:19:05.803Z,44.80
2018-08-23T07:21:32.560Z,49.40
2018-08-23T07:23:59.033Z,42.20
2018-08-23T07:26:25.561Z,45.60
2018-08-23T07:28:52.344Z,41.40
2018-08-23T07:31:18.834Z,39.00
2018-08-23T07:33:46.131Z,42.20
2018-08-23T07:36:12.930Z,42.60
2018-08-23T07:38:39.389Z,38.60
2018-08-23T07:41:05.862Z,45.00
2018-08-23T07:43:32.628Z,42.20
2018-08-23T07:45:59.326Z,43.00
2018-08-23T07:48:26.606Z,30.80
2018-08-23T07:50:53.346Z,35.40
2018-08-23T07:53:19.897Z,37.80
2018-08-23T07:55:46.348Z,43.40
2018-08-23T07:58:13.176Z,40.40
2018-08-23T08:00:39.635Z,41.20
2018-08-23T08:03:06.594Z,44.40
2018-08-23T08:05:36.195Z,41.20
2018-08-23T08:08:02.678Z,40.20
2018-08-23T08:10:29.186Z,35.00
2018-08-23T08:12:55.929Z,44.60
2018-08-23T08:15:22.669Z,38.80
2018-08-23T08:17:49.965Z,41.40
2018-08-23T08:20:17.530Z,43.00
2018-08-23T08:22:45.501Z,46.20
2018-08-23T08:25:11.983Z,35.00
2018-08-23T08:27:38.775Z,39.60
2018-08-23T08:30:07.100Z,42.00
2018-08-23T08:32:34.156Z,35.60
2018-08-23T08:35:00.942Z,43.60
2018-08-23T08:37:27.450Z,46.60
2018-08-23T08:39:53.960Z,41.00
2018-08-23T08:42:20.757Z,40.80
2018-08-23T08:44:47.238Z,45.00
2018-08-23T08:47:13.690Z,39.40
2018-08-23T08:49:40.169Z,37.20
2018-08-23T08:52:06.661Z,39.40
2018-08-23T08:54:33.431Z,32.40
2018-08-23T08:57:03.593Z,37.20
2018-08-23T08:59:30.077Z,19.00
2018-08-23T09:01:56.879Z,34.80
2018-08-23T09:04:23.394Z,35.00
2018-08-23T09:06:50.928Z,32.40
2018-08-23T09:09:17.681Z,32.60
2018-08-23T09:11:44.166Z,31.80
2018-08-23T09:14:12.284Z,29.80
2018-08-23T09:16:39.229Z,35.80
2018-08-23T09:19:05.719Z,34.00
2018-08-23T09:21:32.195Z,39.20
2018-08-23T09:23:58.942Z,37.40
2018-08-23T09:26:25.393Z,32.60
2018-08-23T09:28:51.866Z,38.40
2018-08-23T09:31:18.697Z,38.80
2018-08-23T09:33:45.230Z,39.80
2018-08-23T09:36:12.603Z,31.60
2018-08-23T09:38:41.332Z,37.40
2018-08-23T09:41:07.800Z,38.00
2018-08-23T09:43:34.268Z,38.00
2018-08-23T09:46:03.636Z,41.20
2018-08-23T09:48:30.084Z,41.40
2018-08-23T09:50:56.581Z,38.00
2018-08-23T09:53:23.322Z,42.80
2018-08-23T09:55:51.160Z,27.40
2018-08-23T09:58:19.106Z,35.40
2018-08-23T10:00:48.465Z,36.80
2018-08-23T10:03:14.957Z,33.20
2018-08-23T10:05:41.442Z,29.80
2018-08-23T10:08:08.302Z,32.60
2018-08-23T10:10:34.921Z,30.00
2018-08-23T10:13:01.393Z,21.00
2018-08-23T10:15:28.135Z,22.40
2018-08-23T10:17:54.589Z,27.60
2018-08-23T10:20:22.017Z,24.80
2018-08-23T10:22:48.940Z,24.80
2018-08-23T10:25:15.717Z,27.20
2018-08-23T10:27:43.238Z,27.40
2018-08-23T10:30:10.153Z,27.20
2018-08-23T10:32:37.160Z,20.60
2018-08-23T10:35:03.762Z,23.20
2018-08-23T10:37:30.513Z,26.60
2018-08-23T10:39:57.229Z,30.80
2018-08-23T10:42:23.699Z,27.60
2018-08-23T10:44:50.580Z,22.20
2018-08-23T10:47:17.133Z,28.80
2018-08-23T10:49:43.797Z,23.00
2018-08-23T10:52:10.678Z,24.20
2018-08-23T10:57:08.417Z,27.40
2018-08-23T10:59:38.314Z,25.00
2018-08-23T11:02:05.437Z,21.80
2018-08-23T11:04:31.987Z,25.60
2018-08-23T11:06:58.729Z,21.60
2018-08-23T11:09:25.389Z,24.60
2018-08-23T11:11:52.002Z,22.20
2018-08-23T11:14:19.517Z,22.40
2018-08-23T11:16:47.418Z,20.40
2018-08-23T11:19:15.221Z,21.40
2018-08-23T11:21:43.001Z,23.80
2018-08-23T11:24:09.499Z,23.40
2018-08-23T11:26:36.265Z,25.60
2018-08-23T11:29:03.086Z,25.00
2018-08-23T11:38:25.256Z,27.60
2018-08-23T11:40:52.108Z,23.40
2018-08-23T11:43:18.687Z,27.00
2018-08-23T11:45:47.125Z,33.40
2018-08-23T11:48:14.591Z,32.20
2018-08-23T11:50:41.445Z,30.80
2018-08-23T11:53:08.089Z,33.00
2018-08-23T11:58:08.399Z,34.20
2018-08-23T12:00:35.254Z,36.20
2018-08-23T12:03:02.383Z,29.20
2018-08-23T12:05:32.166Z,32.40
2018-08-23T12:07:58.747Z,30.20
2018-08-23T12:10:25.551Z,27.80
2018-08-23T12:12:52.353Z,34.20
2018-08-23T12:15:19.480Z,35.60
2018-08-23T12:17:45.950Z,32.80
2018-08-23T12:20:12.767Z,32.00
2018-08-23T12:22:39.356Z,36.00
2018-08-23T12:25:05.833Z,35.20
2018-08-23T12:27:32.682Z,37.80
2018-08-23T12:29:59.209Z,36.00
2018-08-23T12:32:25.730Z,36.20
2018-08-23T12:34:52.856Z,35.80
2018-08-23T12:37:19.438Z,36.80
2018-08-23T12:39:46.545Z,38.60
2018-08-23T12:42:13.329Z,37.20
2018-08-23T12:44:39.857Z,38.00
2018-08-23T12:47:08.399Z,38.20
2018-08-23T12:49:37.436Z,37.20
2018-08-23T12:52:07.752Z,34.40
2018-08-23T12:54:34.778Z,29.20
2018-08-23T12:57:02.665Z,34.80
2018-08-23T12:59:30.885Z,32.40
2018-08-23T13:01:57.472Z,25.20
2018-08-23T13:04:24.433Z,28.00
2018-08-23T13:06:50.834Z,28.00
2018-08-23T13:09:17.425Z,30.40
2018-08-23T13:11:47.202Z,31.80
2018-08-23T13:14:14.358Z,30.40
2018-08-23T13:16:42.111Z,27.20
2018-08-23T13:19:09.967Z,25.60
2018-08-23T13:21:36.462Z,19.00
2018-08-23T13:24:04.159Z,19.00
2018-08-23T13:26:30.957Z,17.20
2018-08-23T13:28:57.489Z,17.40
2018-08-23T13:31:23.978Z,11.80
2018-08-23T13:33:51.394Z,11.40
2018-08-23T13:36:17.997Z,10.00
2018-08-23T13:38:44.451Z,5.20
2018-08-23T13:41:14.319Z,8.00
2018-08-23T13:43:40.823Z,9.40
2018-08-23T13:46:07.322Z,8.00
2018-08-23T13:48:34.414Z,8.00
2018-08-23T13:51:00.895Z,8.80
2018-08-23T13:53:27.407Z,9.40
2018-08-23T13:55:54.988Z,9.00
2018-08-23T13:58:21.535Z,7.20
2018-08-23T14:00:49.708Z,5.60
2018-08-23T14:03:16.525Z,10.40
2018-08-23T14:05:43.036Z,8.00
2018-08-23T14:08:09.527Z,7.20
2018-08-23T14:10:36.271Z,6.00
2018-08-23T14:13:02.762Z,8.00
2018-08-23T14:15:30.392Z,6.40
2018-08-23T14:17:57.484Z,6.00
2018-08-23T14:20:25.391Z,7.60
2018-08-23T14:22:51.933Z,6.80
2018-08-23T14:25:18.758Z,7.40
2018-08-23T14:27:45.354Z,8.00
2018-08-23T14:30:12.508Z,6.40
2018-08-23T14:32:39.316Z,7.40
2018-08-23T14:35:05.866Z,8.00
2018-08-23T14:37:32.939Z,9.00
2018-08-23T14:40:01.878Z,8.20
2018-08-23T14:42:29.416Z,10.20
2018-08-23T14:44:56.919Z,9.00
2018-08-23T14:47:23.722Z,8.40
2018-08-23T14:49:51.157Z,8.00
2018-08-23T14:52:17.685Z,8.20
2018-08-23T14:54:44.473Z,4.80
2018-08-23T14:57:10.969Z,8.00
2018-08-23T14:59:38.481Z,9.00
2018-08-23T15:02:05.449Z,8.00
2018-08-23T15:04:31.965Z,6.20
2018-08-23T15:09:37.822Z,4.20
2018-08-23T15:12:04.391Z,6.60
2018-08-23T15:14:35.908Z,8.00
2018-08-23T15:17:08.181Z,8.20
2018-08-23T15:19:37.461Z,4.00
2018-08-23T15:22:03.975Z,8.00
2018-08-23T15:24:30.970Z,6.00
2018-08-23T15:26:58.470Z,9.00
2018-08-23T15:29:26.006Z,7.00
2018-08-23T15:31:55.198Z,8.40
2018-08-23T15:34:21.687Z,7.00
2018-08-23T15:36:48.157Z,13.40
2018-08-23T15:39:14.930Z,6.80
2018-08-23T15:41:41.450Z,7.20
2018-08-23T15:44:07.966Z,5.80
2018-08-23T15:46:34.742Z,9.80
2018-08-23T15:49:01.228Z,8.20
2018-08-23T15:51:27.761Z,8.00
2018-08-23T15:53:55.377Z,5.40
2018-08-23T15:56:22.564Z,8.00
2018-08-23T15:58:49.835Z,9.00
2018-08-23T16:01:22.949Z,9.60
2018-08-23T16:06:26.189Z,8.00
2018-08-23T16:08:52.682Z,9.00
2018-08-23T16:11:19.296Z,9.00
2018-08-23T16:13:46.363Z,8.60
2018-08-23T16:16:12.875Z,10.00
2018-08-23T16:18:39.541Z,10.00
2018-08-23T16:21:08.260Z,10.00
2018-08-23T16:23:35.369Z,9.80
2018-08-23T16:26:01.980Z,5.20
2018-08-23T16:28:29.418Z,9.00
2018-08-23T16:30:55.913Z,9.20
2018-08-23T16:33:23.415Z,10.00
2018-08-23T16:35:50.214Z,9.60
2018-08-23T16:38:17.442Z,8.00
2018-08-23T16:40:43.962Z,10.20
2018-08-23T16:43:10.728Z,10.60
2018-08-23T16:45:38.493Z,11.00
2018-08-23T16:50:38.161Z,10.00
2018-08-23T16:53:04.673Z,10.60
2018-08-23T16:55:31.190Z,10.60
2018-08-23T16:57:59.497Z,10.00
2018-08-23T17:00:27.979Z,13.40
2018-08-23T17:02:55.042Z,10.00
2018-08-23T17:05:22.522Z,8.80
2018-08-23T17:07:51.215Z,13.40
2018-08-23T17:10:20.533Z,7.00
2018-08-23T17:12:48.065Z,12.60
2018-08-23T17:15:15.258Z,14.00
2018-08-23T17:17:41.844Z,16.20
2018-08-23T17:20:09.581Z,12.00
2018-08-23T17:22:39.281Z,13.00
2018-08-23T17:25:05.798Z,14.40
2018-08-23T17:27:33.575Z,12.20
2018-08-23T17:30:01.553Z,13.00
2018-08-23T17:32:28.057Z,12.60
2018-08-23T17:34:55.358Z,11.20
2018-08-23T17:37:21.874Z,13.60
2018-08-23T17:39:48.421Z,14.20
2018-08-23T17:42:18.658Z,10.00
2018-08-23T17:44:46.101Z,13.40
2018-08-23T17:47:12.581Z,15.40
2018-08-23T17:49:39.422Z,12.20
2018-08-23T17:52:05.897Z,15.00
2018-08-23T17:54:32.412Z,12.00
2018-08-23T17:57:04.234Z,13.60
2018-08-23T17:59:30.784Z,15.60
2018-08-23T18:01:57.400Z,11.60
2018-08-23T18:04:24.158Z,10.60
2018-08-23T18:06:50.730Z,14.80
2018-08-23T18:09:18.158Z,15.80
2018-08-23T18:11:44.982Z,11.60
2018-08-23T18:14:11.479Z,11.00
2018-08-23T18:16:38.478Z,16.20
2018-08-23T18:19:05.326Z,15.00
2018-08-23T18:21:33.187Z,11.80
2018-08-23T18:26:32.203Z,19.40
2018-08-23T18:28:59.652Z,12.20
2018-08-23T18:31:26.409Z,15.00
2018-08-23T18:33:54.391Z,13.60
2018-08-23T18:36:20.893Z,16.80
2018-08-23T18:38:47.377Z,11.40
2018-08-23T18:41:14.200Z,15.20
2018-08-23T18:43:40.715Z,10.20
2018-08-23T18:46:07.251Z,12.00
2018-08-23T18:48:34.021Z,15.40
2018-08-23T18:51:00.622Z,12.40
2018-08-23T18:53:27.153Z,10.20
2018-08-23T18:55:55.104Z,13.00
2018-08-23T18:58:22.094Z,15.20
2018-08-23T19:00:48.614Z,12.40
2018-08-23T19:03:18.516Z,12.40
2018-08-23T19:05:46.160Z,5.00
2018-08-23T19:08:12.744Z,11.80
2018-08-23T19:10:39.508Z,11.00
2018-08-23T19:13:08.041Z,11.20
2018-08-23T19:15:35.221Z,12.00
2018-08-23T19:18:02.054Z,10.60
2018-08-23T19:20:29.325Z,12.40
2018-08-23T19:22:56.473Z,14.80
2018-08-23T19:25:25.586Z,16.00
2018-08-23T19:27:53.579Z,9.20
2018-08-23T19:30:20.306Z,12.40
2018-08-23T19:32:47.100Z,18.20
2018-08-23T19:35:15.277Z,14.80
2018-08-23T19:37:41.812Z,17.60
2018-08-23T19:40:08.603Z,16.40
2018-08-23T19:42:38.810Z,15.80
2018-08-23T19:45:05.583Z,13.20
2018-08-23T19:47:32.440Z,15.20
2018-08-23T19:49:58.945Z,15.20
2018-08-23T19:52:25.518Z,17.40
2018-08-23T19:54:54.282Z,15.60
2018-08-23T19:57:20.922Z,12.60
2018-08-23T19:59:47.438Z,14.20
2018-08-23T20:02:15.249Z,12.80
2018-08-23T20:04:42.410Z,13.60
2018-08-23T20:07:08.906Z,17.60
2018-08-23T20:09:35.709Z,8.00
2018-08-23T20:12:02.290Z,14.80
2018-08-23T20:14:29.543Z,12.40
2018-08-23T20:16:56.340Z,13.40
2018-08-23T20:19:22.802Z,13.60
2018-08-23T20:21:50.292Z,12.00
2018-08-23T20:24:17.934Z,15.80
2018-08-23T20:26:44.465Z,10.00
2018-08-23T20:29:19.873Z,12.80
2018-08-23T20:31:48.329Z,13.00
2018-08-23T20:34:15.485Z,13.00
2018-08-23T20:36:43.459Z,10.60
2018-08-23T20:39:12.070Z,7.60
2018-08-23T20:41:40.813Z,11.80
2018-08-23T20:44:08.453Z,11.40
2018-08-23T20:46:35.694Z,10.60
2018-08-23T20:49:03.053Z,12.60
2018-08-23T20:51:31.455Z,11.00
2018-08-23T20:53:57.945Z,10.60
2018-08-23T20:56:24.435Z,11.40
2018-08-23T20:58:52.074Z,9.80
2018-08-23T21:01:19.146Z,10.20
2018-08-23T21:03:46.736Z,8.40
2018-08-23T21:06:14.500Z,9.60
2018-08-23T21:08:41.030Z,11.40
2018-08-23T21:11:07.533Z,10.00
2018-08-23T21:13:34.303Z,10.00
2018-08-23T21:16:01.727Z,8.80
2018-08-23T21:18:28.702Z,11.00
2018-08-23T21:20:56.454Z,10.40
2018-08-23T21:23:23.472Z,8.20
2018-08-23T21:28:22.849Z,12.00
2018-08-23T21:30:49.356Z,11.40
2018-08-23T21:33:15.835Z,8.80
2018-08-23T21:35:42.638Z,12.20
2018-08-23T21:38:09.136Z,7.00
2018-08-23T21:40:35.602Z,8.20
2018-08-23T21:43:02.353Z,8.40
2018-08-23T21:45:28.846Z,7.60
2018-08-23T21:47:55.340Z,8.20
2018-08-23T21:50:23.578Z,8.40
2018-08-23T21:52:51.094Z,7.20
2018-08-23T21:55:17.591Z,8.20
2018-08-23T21:57:45.261Z,5.40
2018-08-23T22:00:11.771Z,5.20
2018-08-23T22:02:38.759Z,7.00
2018-08-23T22:05:05.528Z,6.60
2018-08-23T22:07:35.654Z,7.60
2018-08-23T22:10:02.183Z,6.00
2018-08-23T22:12:28.706Z,6.60
2018-08-23T22:14:55.232Z,6.00
2018-08-23T22:17:22.092Z,6.20
2018-08-23T22:19:48.651Z,5.80
2018-08-23T22:22:15.247Z,5.00
2018-08-23T22:24:42.036Z,4.60
2018-08-23T22:27:08.504Z,4.00
2018-08-23T22:29:34.993Z,2.40
2018-08-23T22:32:01.751Z,6.20
2018-08-23T22:34:28.222Z,4.00
2018-08-23T22:36:54.673Z,5.80
2018-08-23T22:39:21.229Z,6.00
2018-08-23T22:41:47.707Z,5.00
2018-08-23T22:44:14.560Z,4.80
2018-08-23T22:46:42.294Z,6.00
2018-08-23T22:49:08.794Z,6.20
2018-08-23T22:51:35.754Z,9.40
2018-08-23T22:54:02.261Z,6.60
2018-08-23T22:56:29.547Z,3.80
2018-08-23T22:58:56.357Z,4.00
2018-08-23T23:01:22.854Z,4.60
2018-08-23T23:03:49.376Z,6.00
2018-08-23T23:06:16.177Z,5.00
2018-08-23T23:08:42.666Z,4.00
2018-08-23T23:11:09.163Z,5.40
2018-08-23T23:13:36.312Z,4.00
2018-08-23T23:16:02.787Z,5.80
2018-08-23T23:18:29.270Z,4.00
2018-08-23T23:20:55.737Z,4.00
2018-08-23T23:23:23.270Z,6.00
2018-08-23T23:25:49.943Z,4.20
2018-08-23T23:28:16.571Z,4.40
2018-08-23T23:30:44.320Z,6.60
2018-08-23T23:33:11.363Z,5.20
2018-08-23T23:35:38.764Z,4.00
2018-08-23T23:38:05.441Z,4.00
2018-08-23T23:40:32.243Z,4.00
2018-08-23T23:42:58.795Z,4.00
2018-08-23T23:45:25.280Z,6.40
2018-08-23T23:47:52.105Z,4.40
2018-08-23T23:50:18.573Z,6.20
2018-08-23T23:52:45.053Z,4.00
2018-08-23T23:55:11.845Z,4.80
2018-08-23T23:57:38.337Z,3.60
